Time;durP1;ratioP1;P1;durP2;ratioP2;P2;SDS_P1;SDS_P2;PMS_P1;PMS_P2;Temp;Humidity;BMP_temperature;BMP_pressure;BME280_temperature;BME280_humidity;BME280_pressure;Samples;Min_cycle;Max_cycle;Signal;HPM_P1;HPM_P2
2023/01/28 00:00:53;;;;;;;2.15;0.50;;;15.50;1.00;;;;;;5034668;28;20048;-39
2023/01/28 00:03:20;;;;;;;1.10;0.20;;;15.50;1.00;;;;;;5034544;28;20085;-38
2023/01/28 00:05:47;;;;;;;0.90;0.20;;;15.50;1.00;;;;;;5034744;28;20493;-39
2023/01/28 00:08:14;;;;;;;1.33;0.30;;;15.50;1.00;;;;;;5034951;28;20037;-38
2023/01/28 00:10:44;;;;;;;0.60;0.20;;;15.50;1.00;;;;;;5034738;28;20523;-38
2023/01/28 00:13:13;;;;;;;0.90;0.40;;;15.40;1.00;;;;;;5034350;28;20047;-38
2023/01/28 00:15:40;;;;;;;1.05;0.40;;;15.40;1.00;;;;;;5016855;28;20084;-39
2023/01/28 00:18:08;;;;;;;0.35;0.15;;;15.40;1.00;;;;;;5034646;28;20046;-39
2023/01/28 00:20:35;;;;;;;1.20;0.40;;;15.40;1.00;;;;;;5034559;28;20049;-39
2023/01/28 00:23:02;;;;;;;0.75;0.20;;;15.30;1.00;;;;;;5034164;28;20125;-39
2023/01/28 00:25:30;;;;;;;1.42;0.40;;;15.30;1.00;;;;;;5034381;28;20056;-39
2023/01/28 00:27:57;;;;;;;0.50;0.30;;;15.30;1.00;;;;;;5034479;28;20049;-39
2023/01/28 00:30:23;;;;;;;1.10;0.30;;;15.30;1.00;;;;;;5034372;28;20112;-39
2023/01/28 00:32:53;;;;;;;1.05;0.40;;;15.20;1.00;;;;;;5033854;28;20497;-39
2023/01/28 00:35:19;;;;;;;0.68;0.20;;;15.20;1.00;;;;;;5016544;28;20055;-39
2023/01/28 00:37:46;;;;;;;1.67;0.30;;;15.20;1.00;;;;;;5034254;28;20055;-39
2023/01/28 00:40:13;;;;;;;0.50;0.10;;;15.20;1.00;;;;;;5034170;28;20120;-39
2023/01/28 00:42:40;;;;;;;0.70;0.20;;;15.20;1.00;;;;;;5033733;28;20048;-39
2023/01/28 00:45:08;;;;;;;0.60;0.30;;;15.20;1.00;;;;;;5016257;28;20572;-38
2023/01/28 00:47:35;;;;;;;2.53;0.28;;;15.20;1.00;;;;;;5016141;28;20052;-39
2023/01/28 00:50:02;;;;;;;1.05;0.50;;;15.10;1.00;;;;;;5034069;28;20045;-39
2023/01/28 00:52:30;;;;;;;0.70;0.20;;;15.10;1.00;;;;;;5033754;28;20041;-40
2023/01/28 00:54:57;;;;;;;1.23;0.20;;;15.10;1.00;;;;;;5033810;28;20076;-38
2023/01/28 00:57:25;;;;;;;0.40;0.13;;;15.00;1.00;;;;;;5016035;28;20108;-38
2023/01/28 00:59:52;;;;;;;0.93;0.40;;;15.00;1.00;;;;;;5033815;28;20056;-38
2023/01/28 01:02:20;;;;;;;0.40;0.20;;;15.00;1.00;;;;;;5016157;28;20091;-39
2023/01/28 01:05:00;;;;;;;1.25;0.40;;;15.00;1.00;;;;;;5033748;28;20480;-39
2023/01/28 01:07:40;;;;;;;0.88;0.22;;;15.00;1.00;;;;;;5033703;28;20068;-39
2023/01/28 01:10:10;;;;;;;1.40;0.50;;;14.90;1.00;;;;;;5033723;28;20042;-39
2023/01/28 01:12:38;;;;;;;2.33;0.10;;;14.90;1.00;;;;;;5033062;28;20077;-39
2023/01/28 01:15:09;;;;;;;0.68;0.20;;;14.90;1.00;;;;;;5015663;28;20111;-39
2023/01/28 01:17:41;;;;;;;0.43;0.20;;;14.90;1.00;;;;;;5016026;28;20075;-39
2023/01/28 01:20:13;;;;;;;2.05;0.25;;;14.90;1.00;;;;;;5033450;28;20065;-38
2023/01/28 01:22:40;;;;;;;2.28;0.52;;;14.90;1.00;;;;;;5014785;28;20053;-39
2023/01/28 01:25:08;;;;;;;0.60;0.20;;;14.90;1.00;;;;;;5032954;28;20045;-39
2023/01/28 01:27:35;;;;;;;1.00;0.50;;;14.80;1.00;;;;;;5014603;28;20041;-39
2023/01/28 01:30:03;;;;;;;0.60;0.30;;;14.80;1.00;;;;;;5032362;28;20493;-39
2023/01/28 01:32:31;;;;;;;0.60;0.20;;;14.80;1.00;;;;;;4998329;28;20120;-39
2023/01/28 01:34:58;;;;;;;0.80;0.25;;;14.80;1.00;;;;;;5015214;28;20045;-39
2023/01/28 01:37:25;;;;;;;0.85;0.20;;;14.80;1.00;;;;;;5031778;28;20059;-39
2023/01/28 01:39:52;;;;;;;0.47;0.28;;;14.70;1.00;;;;;;5031956;28;20054;-40
2023/01/28 01:42:20;;;;;;;0.60;0.15;;;14.70;1.00;;;;;;5016580;28;20140;-39
2023/01/28 01:45:03;;;;;;;0.82;0.20;;;14.70;1.00;;;;;;5030372;28;20065;-39
2023/01/28 01:48:15;;;;;;;1.15;0.40;;;14.70;1.00;;;;;;5026636;28;20030;-39
2023/01/28 01:50:55;;;;;;;0.52;0.20;;;14.70;1.00;;;;;;5027745;28;20485;-39
2023/01/28 01:53:25;;;;;;;0.30;0.10;;;14.60;1.00;;;;;;5025036;28;20129;-40
2023/01/28 01:55:57;;;;;;;1.85;0.20;;;14.60;1.00;;;;;;5032899;28;20132;-38
2023/01/28 01:58:30;;;;;;;0.95;0.25;;;14.60;1.00;;;;;;5031378;28;20060;-39
2023/01/28 02:00:57;;;;;;;0.40;0.20;;;14.60;1.00;;;;;;5031431;28;20500;-39
2023/01/28 02:03:35;;;;;;;0.82;0.20;;;14.60;1.00;;;;;;5032357;28;20076;-39
2023/01/28 02:06:03;;;;;;;0.30;0.20;;;14.60;1.00;;;;;;5031353;28;20045;-38
2023/01/28 02:08:29;;;;;;;0.95;0.15;;;14.60;1.00;;;;;;5032596;28;20484;-39
2023/01/28 02:11:04;;;;;;;1.42;0.30;;;14.70;1.00;;;;;;5032227;28;20045;-38
2023/01/28 02:13:37;;;;;;;0.55;0.20;;;14.70;1.00;;;;;;5031105;28;20099;-39
2023/01/28 02:16:05;;;;;;;;;;;14.80;1.00;;;;;;5019629;28;20057;-39
2023/01/28 02:18:32;;;;;;;0.65;0.20;;;14.90;1.00;;;;;;5014609;28;19928;-39
2023/01/28 02:21:36;;;;;;;0.77;0.20;;;15.00;1.00;;;;;;5032436;28;20047;-39
2023/01/28 02:24:03;;;;;;;0.20;0.10;;;15.10;1.00;;;;;;5031983;28;20065;-39
2023/01/28 02:26:55;;;;;;;1.85;0.25;;;15.20;1.00;;;;;;5014649;28;20548;-39
2023/01/28 02:29:48;;;;;;;0.22;0.10;;;15.30;1.00;;;;;;5014456;28;20048;-39
2023/01/28 02:32:21;;;;;;;0.82;0.30;;;15.30;1.00;;;;;;5032021;28;20563;-39
2023/01/28 02:35:03;;;;;;;1.07;0.20;;;15.40;1.00;;;;;;5014325;28;20047;-39
2023/01/28 02:37:56;;;;;;;0.82;0.40;;;15.50;1.00;;;;;;5014486;28;20286;-39
2023/01/28 02:41:00;;;;;;;0.57;0.22;;;15.50;1.00;;;;;;5014487;28;20056;-39
2023/01/28 02:43:42;;;;;;;0.38;0.10;;;15.60;1.00;;;;;;5013855;28;20037;-38
2023/01/28 02:49:23;;;;;;;0.50;0.20;;;15.60;1.00;;;;;;5013699;28;20497;-38
2023/01/28 02:51:59;;;;;;;1.35;0.20;;;15.60;1.00;;;;;;5014029;28;20041;-39
2023/01/28 02:54:47;;;;;;;0.98;0.55;;;15.60;1.00;;;;;;5013894;28;20042;-38
2023/01/28 02:57:15;;;;;;;1.42;0.20;;;15.60;1.00;;;;;;5013307;28;20484;-40
2023/01/28 03:00:09;;;;;;;0.75;0.10;;;15.60;1.00;;;;;;5014093;28;20136;-38
2023/01/28 03:02:45;;;;;;;1.80;0.20;;;15.60;1.00;;;;;;5031619;28;20045;-39
2023/01/28 03:05:21;;;;;;;0.30;0.10;;;15.60;1.00;;;;;;5031701;28;20034;-38
2023/01/28 03:07:50;;;;;;;0.40;0.13;;;15.60;1.00;;;;;;5014023;28;20069;-39
2023/01/28 03:10:20;;;;;;;0.70;0.10;;;15.60;1.00;;;;;;5031737;28;20481;-39
2023/01/28 03:38:47;;;;;;;0.20;0.10;;;15.40;1.00;;;;;;5014061;28;20057;-32
2023/01/28 03:41:23;;;;;;;1.58;0.10;;;15.40;1.00;;;;;;5013653;28;20065;-32
2023/01/28 03:43:53;;;;;;;1.67;0.10;;;15.30;1.00;;;;;;5013383;28;20041;-32
2023/01/28 03:46:20;;;;;;;1.02;0.20;;;15.30;1.00;;;;;;5031275;28;20060;-32
2023/01/28 03:48:47;;;;;;;0.20;0.10;;;15.30;1.00;;;;;;5031440;28;20124;-32
2023/01/28 03:51:16;;;;;;;3.40;0.30;;;15.30;1.00;;;;;;5013522;28;20427;-32
2023/01/28 03:53:43;;;;;;;0.43;0.20;;;15.20;1.00;;;;;;5031124;28;20072;-32
2023/01/28 03:56:17;;;;;;;0.98;0.10;;;15.20;1.00;;;;;;5013397;28;20051;-32
2023/01/28 03:59:02;;;;;;;0.45;0.10;;;15.20;1.00;;;;;;5013635;28;20103;-32
2023/01/28 04:01:28;;;;;;;0.47;0.10;;;15.20;1.00;;;;;;5014671;28;20483;-32
2023/01/28 04:03:56;;;;;;;0.20;0.17;;;15.20;1.00;;;;;;5016978;28;20459;-32
2023/01/28 04:06:27;;;;;;;0.47;0.15;;;15.10;1.00;;;;;;5017047;28;20041;-32
2023/01/28 04:09:01;;;;;;;0.52;0.10;;;15.10;1.00;;;;;;5017239;28;20049;-31
2023/01/28 04:11:31;;;;;;;0.40;0.10;;;15.10;1.00;;;;;;5034515;28;20424;-32
2023/01/28 04:14:00;;;;;;;0.60;0.32;;;15.10;1.00;;;;;;5016667;28;20053;-32
2023/01/28 04:16:39;;;;;;;0.40;0.15;;;15.00;1.00;;;;;;5016828;28;20068;-32
2023/01/28 04:19:05;;;;;;;0.40;0.10;;;15.00;1.00;;;;;;5016873;28;20050;-31
2023/01/28 04:21:33;;;;;;;1.13;0.22;;;15.00;1.00;;;;;;5016802;28;20069;-31
2023/01/28 04:24:02;;;;;;;0.40;0.20;;;15.00;1.00;;;;;;5016435;28;20049;-31
2023/01/28 04:26:29;;;;;;;1.45;0.40;;;15.00;1.00;;;;;;5016748;28;20099;-32
2023/01/28 04:28:56;;;;;;;0.40;0.10;;;14.90;1.00;;;;;;5016679;28;20046;-32
2023/01/28 04:31:23;;;;;;;0.30;0.10;;;14.90;1.00;;;;;;5016391;28;20049;-31
2023/01/28 04:34:01;;;;;;;1.17;0.30;;;14.90;1.00;;;;;;5016365;28;20057;-32
2023/01/28 04:36:38;;;;;;;0.38;0.10;;;14.90;1.00;;;;;;5016621;28;20077;-32
2023/01/28 04:39:31;;;;;;;0.43;0.13;;;14.90;1.00;;;;;;5003454;28;20084;-32
2023/01/28 04:42:19;;;;;;;0.30;0.00;;;14.80;1.00;;;;;;5034019;28;20067;-32
2023/01/28 04:45:07;;;;;;;0.32;0.00;;;14.80;1.00;;;;;;5016157;28;20456;-32
2023/01/28 04:47:49;;;;;;;0.75;0.13;;;14.80;1.00;;;;;;5016348;28;20052;-32
2023/01/28 04:50:39;;;;;;;0.43;0.10;;;14.80;1.00;;;;;;5020725;28;20517;-31
2023/01/28 04:53:26;;;;;;;0.32;0.10;;;14.80;1.00;;;;;;5033001;28;20049;-32
2023/01/28 04:55:57;;;;;;;0.40;0.10;;;14.70;1.00;;;;;;5016140;28;20050;-32
2023/01/28 04:58:28;;;;;;;0.50;0.20;;;14.70;1.00;;;;;;5016237;28;20045;-32
2023/01/28 05:00:59;;;;;;;0.90;0.20;;;14.70;1.00;;;;;;5016046;28;20524;-31
2023/01/28 05:03:27;;;;;;;0.32;0.08;;;14.70;1.00;;;;;;5015590;28;20527;-32
2023/01/28 05:05:54;;;;;;;0.50;0.10;;;14.70;1.00;;;;;;5015755;28;20569;-31
2023/01/28 05:08:31;;;;;;;0.57;0.20;;;14.60;1.00;;;;;;5015931;28;20053;-31
2023/01/28 05:10:58;;;;;;;0.30;0.10;;;14.60;1.00;;;;;;5015859;28;20046;-32
2023/01/28 05:13:25;;;;;;;0.60;0.17;;;14.60;1.00;;;;;;5014377;28;20042;-32
2023/01/28 05:15:52;;;;;;;0.57;0.30;;;14.60;1.00;;;;;;5015811;28;20060;-32
2023/01/28 05:18:20;;;;;;;0.22;0.10;;;14.60;1.00;;;;;;5015645;28;20459;-31
2023/01/28 05:21:00;;;;;;;0.25;0.10;;;14.70;1.00;;;;;;5015609;28;20532;-31
2023/01/28 05:23:28;;;;;;;0.30;0.10;;;14.70;1.00;;;;;;5015537;28;20059;-32
2023/01/28 05:25:58;;;;;;;0.70;0.20;;;14.80;1.00;;;;;;5033420;28;20044;-32
2023/01/28 05:28:25;;;;;;;1.20;0.25;;;14.90;1.00;;;;;;5015517;28;20099;-31
2023/01/28 05:30:52;;;;;;;0.80;0.17;;;15.00;1.00;;;;;;5015346;28;20702;-32
2023/01/28 05:33:19;;;;;;;0.13;0.03;;;15.10;1.00;;;;;;5015174;28;20049;-32
2023/01/28 05:35:46;;;;;;;0.80;0.20;;;15.20;1.00;;;;;;5033407;28;20508;-32
2023/01/28 05:38:12;;;;;;;0.15;0.10;;;15.20;1.00;;;;;;5015457;28;20052;-32
2023/01/28 05:40:41;;;;;;;0.75;0.20;;;15.30;1.00;;;;;;5015368;28;20041;-31
2023/01/28 05:43:08;;;;;;;1.48;0.10;;;15.40;1.00;;;;;;5014950;28;20556;-31
2023/01/28 05:45:43;;;;;;;0.40;0.10;;;15.50;1.00;;;;;;5015144;28;20096;-32
2023/01/28 05:48:20;;;;;;;0.32;0.10;;;15.50;1.00;;;;;;5015272;28;20123;-31
2023/01/28 05:51:00;;;;;;;0.35;0.10;;;15.60;1.00;;;;;;5015177;28;20516;-31
2023/01/28 05:53:31;;;;;;;0.47;0.10;;;15.70;1.00;;;;;;5014864;28;20052;-31
2023/01/28 05:55:59;;;;;;;0.30;0.10;;;15.70;1.00;;;;;;5014942;28;20056;-32
2023/01/28 05:58:30;;;;;;;0.55;0.20;;;15.80;1.00;;;;;;5014987;28;20049;-31
2023/01/28 06:01:00;;;;;;;1.65;0.22;;;15.80;1.00;;;;;;5015024;28;20057;-31
2023/01/28 06:03:35;;;;;;;0.70;0.20;;;15.80;1.00;;;;;;5014498;28;20524;-32
2023/01/28 06:06:02;;;;;;;1.90;0.13;;;15.80;1.00;;;;;;5014814;28;20491;-31
2023/01/28 06:08:30;;;;;;;1.13;0.20;;;15.80;1.00;;;;;;5014841;28;20575;-31
2023/01/28 06:10:58;;;;;;;0.22;0.00;;;15.90;1.00;;;;;;5014827;28;20137;-31
2023/01/28 06:13:26;;;;;;;0.98;0.20;;;15.90;1.00;;;;;;5032048;28;20034;-32
2023/01/28 06:16:31;;;;;;;0.55;0.17;;;15.90;1.00;;;;;;5012999;28;20179;-32
2023/01/28 06:19:24;;;;;;;1.13;0.20;;;15.80;1.00;;;;;;5027401;28;20562;-32
2023/01/28 06:21:50;;;;;;;0.20;0.00;;;15.80;1.00;;;;;;5014530;28;20091;-32
2023/01/28 06:24:18;;;;;;;0.65;0.10;;;15.80;1.00;;;;;;5014114;28;20042;-32
2023/01/28 06:26:45;;;;;;;0.35;0.10;;;15.80;1.00;;;;;;5014444;28;20073;-32
2023/01/28 06:29:12;;;;;;;0.30;0.10;;;15.80;1.00;;;;;;5014555;28;20128;-32
2023/01/28 06:31:38;;;;;;;0.40;0.10;;;15.80;1.00;;;;;;5032109;28;20131;-32
2023/01/28 06:34:05;;;;;;;0.47;0.20;;;15.70;1.00;;;;;;5032027;28;20053;-32
2023/01/28 06:36:32;;;;;;;0.38;0.10;;;15.70;1.00;;;;;;5032135;28;20049;-32
2023/01/28 06:38:59;;;;;;;0.20;0.10;;;15.70;1.00;;;;;;5032037;28;20049;-32
2023/01/28 06:41:25;;;;;;;0.30;0.20;;;15.70;1.00;;;;;;5032035;28;20132;-33
2023/01/28 06:43:52;;;;;;;0.20;0.10;;;15.60;1.00;;;;;;5031537;28;20052;-32
2023/01/28 06:46:19;;;;;;;1.30;0.20;;;15.60;1.00;;;;;;5032049;28;20111;-32
2023/01/28 06:48:46;;;;;;;0.40;0.17;;;15.60;1.00;;;;;;5031922;28;20464;-32
2023/01/28 06:51:12;;;;;;;0.57;0.10;;;15.60;1.00;;;;;;5031882;28;20038;-33
2023/01/28 06:53:39;;;;;;;1.98;0.20;;;15.60;1.00;;;;;;5031760;28;20084;-32
2023/01/28 06:56:07;;;;;;;1.85;0.28;;;15.50;1.00;;;;;;5031838;28;20404;-32
2023/01/28 06:58:34;;;;;;;1.27;0.28;;;15.50;1.00;;;;;;5031807;28;20041;-32
2023/01/28 07:01:02;;;;;;;0.32;0.10;;;15.50;1.00;;;;;;5031839;28;20452;-32
2023/01/28 07:03:29;;;;;;;1.50;0.13;;;15.50;1.00;;;;;;5031411;28;20049;-32
2023/01/28 07:05:55;;;;;;;0.40;0.10;;;15.40;1.00;;;;;;5031704;28;20057;-32
2023/01/28 07:08:22;;;;;;;0.25;0.10;;;15.40;1.00;;;;;;5031779;28;20049;-32
2023/01/28 07:10:49;;;;;;;0.63;0.30;;;15.40;1.00;;;;;;5031677;28;20088;-32
2023/01/28 07:13:16;;;;;;;0.17;0.05;;;15.30;1.00;;;;;;5031023;28;20076;-32
2023/01/28 07:15:43;;;;;;;0.52;0.22;;;15.30;1.00;;;;;;5031609;28;20390;-32
2023/01/28 07:18:10;;;;;;;2.08;0.45;;;15.30;1.00;;;;;;5031698;28;20132;-32
2023/01/28 07:20:36;;;;;;;0.13;0.10;;;15.20;1.00;;;;;;5031592;28;20456;-32
2023/01/28 07:23:03;;;;;;;0.38;0.15;;;15.20;1.00;;;;;;5029562;28;20049;-32
2023/01/28 07:25:30;;;;;;;0.35;0.20;;;15.20;1.00;;;;;;5027219;28;20116;-32
2023/01/28 07:27:57;;;;;;;3.70;1.02;;;15.20;1.00;;;;;;5025981;28;20045;-32
2023/01/28 07:30:24;;;;;;;1.63;0.57;;;15.10;1.00;;;;;;5025737;28;20034;-32
2023/01/28 07:32:55;;;;;;;1.15;0.70;;;15.00;1.00;;;;;;5024160;28;20041;-33
2023/01/28 07:35:23;;;;;;;1.88;0.63;;;15.00;1.00;;;;;;5026039;28;20057;-33
2023/01/28 07:37:58;;;;;;;3.25;0.73;;;15.10;1.00;;;;;;5035243;28;20045;-32
2023/01/28 07:40:26;;;;;;;6.00;1.05;;;15.10;1.00;;;;;;5032633;28;20049;-32
2023/01/28 07:42:54;;;;;;;2.70;0.60;;;15.10;1.00;;;;;;5034714;28;20061;-33
2023/01/28 07:45:22;;;;;;;1.65;0.75;;;15.20;1.00;;;;;;5035093;28;20060;-32
2023/01/28 07:48:00;;;;;;;1.13;0.40;;;15.30;1.00;;;;;;5035206;28;20112;-33
2023/01/28 07:50:28;;;;;;;1.95;0.77;;;15.40;1.00;;;;;;5033932;28;20051;-33
2023/01/28 07:52:56;;;;;;;1.48;0.40;;;15.50;1.00;;;;;;5034793;28;20045;-32
2023/01/28 07:55:23;;;;;;;1.45;0.50;;;15.50;1.00;;;;;;5034899;28;20057;-33
2023/01/28 07:57:53;;;;;;;1.10;0.40;;;15.60;1.00;;;;;;5035067;28;20056;-32
2023/01/28 08:00:21;;;;;;;7.60;0.85;;;15.70;1.00;;;;;;5034930;28;20053;-32
2023/01/28 08:02:48;;;;;;;1.95;0.70;;;15.80;1.00;;;;;;5034639;28;20052;-32
2023/01/28 08:05:20;;;;;;;5.53;0.60;;;15.80;1.00;;;;;;5032545;28;20045;-32
2023/01/28 08:07:48;;;;;;;3.10;1.25;;;15.90;1.00;;;;;;5034004;28;20034;-32
2023/01/28 08:10:16;;;;;;;3.60;0.73;;;16.00;1.00;;;;;;5034575;28;20041;-32
2023/01/28 08:12:57;;;;;;;2.30;1.10;;;16.00;1.00;;;;;;5034289;28;20072;-32
2023/01/28 08:15:25;;;;;;;3.05;0.68;;;16.10;1.00;;;;;;5034316;28;20124;-32
2023/01/28 08:17:56;;;;;;;2.28;0.80;;;16.20;1.00;;;;;;5034736;28;20454;-32
2023/01/28 08:20:25;;;;;;;4.25;0.70;;;16.20;1.00;;;;;;5034524;28;20049;-32
2023/01/28 08:22:52;;;;;;;0.82;0.60;;;16.30;1.00;;;;;;5034200;28;20045;-32
2023/01/28 08:25:19;;;;;;;1.35;0.60;;;16.40;1.00;;;;;;5034223;28;20087;-36
2023/01/28 08:27:46;;;;;;;1.48;0.57;;;16.40;1.00;;;;;;5034479;28;20037;-36
2023/01/28 08:30:13;;;;;;;1.98;0.70;;;16.50;1.00;;;;;;5034329;28;20049;-34
2023/01/28 08:32:40;;;;;;;1.25;0.70;;;16.60;1.00;;;;;;5031000;28;20493;-35
2023/01/28 08:35:07;;;;;;;1.42;0.60;;;16.60;1.00;;;;;;5032137;28;20053;-35
2023/01/28 08:37:34;;;;;;;2.28;0.57;;;16.70;1.00;;;;;;5032231;28;20060;-33
2023/01/28 08:40:01;;;;;;;2.17;0.70;;;16.70;1.00;;;;;;5034153;28;20052;-34
2023/01/28 08:42:28;;;;;;;2.65;0.75;;;16.70;1.00;;;;;;5033799;28;20045;-37
2023/01/28 08:44:55;;;;;;;1.42;0.73;;;16.80;1.00;;;;;;5033650;28;20046;-37
2023/01/28 08:47:21;;;;;;;2.38;0.52;;;16.90;1.00;;;;;;5016123;28;20452;-34
2023/01/28 08:49:48;;;;;;;4.82;0.50;;;16.90;1.00;;;;;;5033939;28;20073;-36
2023/01/28 08:52:15;;;;;;;2.38;0.40;;;17.00;1.00;;;;;;5025267;28;20041;-39
2023/01/28 08:54:42;;;;;;;8.02;0.70;;;17.00;1.00;;;;;;5032017;28;20049;-39
2023/01/28 08:57:12;;;;;;;2.00;0.40;;;17.10;1.00;;;;;;5032507;28;20041;-35
2023/01/28 08:59:43;;;;;;;1.85;0.82;;;17.10;1.00;;;;;;5038103;28;20044;-37
2023/01/28 09:02:13;;;;;;;1.85;0.45;;;17.30;1.00;;;;;;5043889;28;20099;-34
2023/01/28 09:04:56;;;;;;;1.55;1.02;;;17.40;1.00;;;;;;5044379;28;20037;-36
2023/01/28 09:07:23;;;;;;;1.30;0.30;;;17.60;1.00;;;;;;5044909;28;20029;-37
2023/01/28 09:09:50;;;;;;;3.22;0.77;;;17.80;1.00;;;;;;5017198;28;20041;-36
2023/01/28 09:12:17;;;;;;;3.85;0.80;;;18.10;1.00;;;;;;5039525;22;20038;-38
2023/01/28 09:14:43;;;;;;;9.27;0.88;;;18.40;1.00;;;;;;5027340;28;20045;-38
2023/01/28 09:17:10;;;;;;;2.67;0.60;;;18.70;1.00;;;;;;5038024;28;20045;-38
2023/01/28 09:19:37;;;;;;;1.50;0.52;;;19.00;1.00;;;;;;5028390;28;20072;-37
2023/01/28 09:22:04;;;;;;;1.00;0.30;;;19.30;1.00;;;;;;5030691;28;20077;-39
2023/01/28 09:24:30;;;;;;;3.95;0.65;;;19.70;1.00;;;;;;5028610;28;20513;-38
2023/01/28 09:26:57;;;;;;;3.08;0.77;;;20.00;1.00;;;;;;5032825;28;20053;-38
2023/01/28 09:29:24;;;;;;;2.13;0.40;;;20.20;1.00;;;;;;5037083;28;20067;-38
2023/01/28 09:31:50;;;;;;;0.98;0.40;;;20.40;1.00;;;;;;5036112;28;20045;-38
2023/01/28 09:34:17;;;;;;;1.23;0.47;;;20.50;1.00;;;;;;5037705;28;20099;-38
2023/01/28 09:36:44;;;;;;;1.13;0.32;;;20.70;1.00;;;;;;5033431;28;20053;-38
2023/01/28 09:39:11;;;;;;;2.45;0.77;;;20.80;1.00;;;;;;5030840;28;20041;-40
2023/01/28 09:42:08;;;;;;;1.95;0.57;;;20.90;1.00;;;;;;5017968;28;20137;-39
2023/01/28 09:44:41;;;;;;;1.65;0.70;;;21.00;1.00;;;;;;5018049;28;20046;-39
2023/01/28 09:47:17;;;;;;;2.92;0.70;;;21.10;1.00;;;;;;5028498;28;20072;-39
2023/01/28 09:49:48;;;;;;;1.45;0.65;;;21.10;1.00;;;;;;5024824;28;20429;-38
2023/01/28 09:52:18;;;;;;;1.02;0.30;;;21.20;1.00;;;;;;5030326;28;20068;-38
2023/01/28 09:54:58;;;;;;;2.08;1.10;;;21.20;1.00;;;;;;5033283;28;20065;-40
2023/01/28 09:57:48;;;;;;;0.63;0.30;;;21.30;1.00;;;;;;5037378;28;20116;-38
2023/01/28 10:00:19;;;;;;;0.90;0.30;;;21.30;1.00;;;;;;5024653;28;20033;-39
2023/01/28 10:02:57;;;;;;;0.80;0.60;;;21.30;1.00;;;;;;5043142;28;20037;-39
2023/01/28 10:05:46;;;;;;;1.02;0.45;;;21.30;1.00;;;;;;5027478;28;20040;-39
2023/01/28 10:08:26;;;;;;;0.68;0.30;;;21.30;1.00;;;;;;5026234;28;20465;-38
2023/01/28 10:11:17;;;;;;;2.55;0.57;;;21.40;1.00;;;;;;5028060;28;20496;-38
2023/01/28 10:14:09;;;;;;;1.92;0.43;;;21.40;1.00;;;;;;5026764;28;20096;-39
2023/01/28 10:17:21;;;;;;;2.10;0.63;;;21.30;1.00;;;;;;5031021;28;20048;-38
2023/01/28 10:19:54;;;;;;;3.45;0.50;;;21.40;1.00;;;;;;5001300;28;20053;-39
2023/01/28 10:22:31;;;;;;;3.53;0.40;;;21.30;1.00;;;;;;5030255;28;20041;-38
2023/01/28 10:25:05;;;;;;;3.08;0.55;;;21.30;1.00;;;;;;5026073;28;20060;-38
2023/01/28 10:27:34;;;;;;;2.65;0.80;;;21.30;1.00;;;;;;5019886;28;20045;-38
2023/01/28 10:30:19;;;;;;;2.53;0.40;;;21.30;1.00;;;;;;5015614;28;20377;-39
2023/01/28 10:33:02;;;;;;;1.10;0.40;;;21.40;1.00;;;;;;5022484;28;20041;-39
2023/01/28 10:35:36;;;;;;;2.00;0.50;;;21.40;1.00;;;;;;5021042;28;20069;-39
2023/01/28 10:38:06;;;;;;;1.73;0.40;;;21.40;1.00;;;;;;5028686;28;20447;-39
2023/01/28 10:40:35;;;;;;;0.43;0.20;;;21.40;1.00;;;;;;5031381;28;20046;-39
2023/01/28 10:43:01;;;;;;;0.82;0.20;;;21.40;1.00;;;;;;5037367;28;20056;-39
2023/01/28 10:45:39;;;;;;;0.90;0.35;;;21.50;1.00;;;;;;5033388;28;20077;-39
2023/01/28 10:48:28;;;;;;;2.63;0.30;;;21.50;1.00;;;;;;5039326;28;20044;-37
2023/01/28 10:51:03;;;;;;;2.35;0.25;;;21.50;1.00;;;;;;5034596;28;20033;-38
2023/01/28 10:53:37;;;;;;;1.13;0.40;;;21.50;1.00;;;;;;5030430;28;20041;-38
2023/01/28 10:56:08;;;;;;;2.55;0.77;;;21.50;1.00;;;;;;5036267;28;20578;-38
2023/01/28 10:59:08;;;;;;;0.73;0.20;;;21.50;1.00;;;;;;5030788;28;20033;-39
2023/01/28 11:01:46;;;;;;;3.38;0.50;;;21.50;1.00;;;;;;5026000;28;20128;-39
2023/01/28 11:04:25;;;;;;;1.35;0.25;;;21.40;1.00;;;;;;5025712;28;20057;-38
2023/01/28 11:07:00;;;;;;;0.40;0.20;;;21.40;1.00;;;;;;5029481;28;20101;-38
2023/01/28 11:09:33;;;;;;;2.42;0.40;;;21.40;1.00;;;;;;5024651;28;20034;-38
2023/01/28 11:12:24;;;;;;;6.30;0.38;;;21.30;1.00;;;;;;5034294;28;20105;-38
2023/01/28 11:15:01;;;;;;;3.55;0.38;;;21.30;1.00;;;;;;5030799;28;20045;-38
2023/01/28 11:17:31;;;;;;;1.45;0.20;;;21.30;1.00;;;;;;5021253;28;20572;-38
2023/01/28 11:20:07;;;;;;;2.70;1.20;;;21.20;1.00;;;;;;5026890;28;20042;-38
2023/01/28 11:22:44;;;;;;;0.47;0.20;;;21.20;1.00;;;;;;5040809;28;20403;-38
2023/01/28 11:25:20;;;;;;;1.85;0.30;;;21.10;1.00;;;;;;5045045;28;20037;-38
2023/01/28 11:27:48;;;;;;;1.42;0.40;;;21.00;1.00;;;;;;5047144;28;20467;-37
2023/01/28 11:30:20;;;;;;;2.65;0.50;;;21.00;1.00;;;;;;5045985;28;20041;-38
2023/01/28 11:33:14;;;;;;;1.63;0.22;;;20.90;1.00;;;;;;5046513;28;20036;-38
2023/01/28 11:35:41;;;;;;;1.58;1.33;;;20.90;1.00;;;;;;5044410;28;20056;-38
2023/01/28 11:38:20;;;;;;;1.35;0.60;;;20.80;1.00;;;;;;5040894;28;20048;-38
2023/01/28 11:40:57;;;;;;;4.18;0.85;;;20.80;1.00;;;;;;5038919;28;20095;-38
2023/01/28 11:43:29;;;;;;;4.15;0.45;;;20.70;1.00;;;;;;5032918;28;20056;-38
2023/01/28 11:46:17;;;;;;;2.90;0.50;;;20.70;1.00;;;;;;5043387;28;20496;-41
2023/01/28 11:48:50;;;;;;;0.82;0.30;;;20.60;1.00;;;;;;5046999;28;20036;-38
2023/01/28 11:51:33;;;;;;;2.05;0.22;;;20.50;1.00;;;;;;5046264;28;20090;-38
2023/01/28 11:54:14;;;;;;;;;;;20.50;1.00;;;;;;5044120;28;20092;-38
2023/01/28 11:57:15;;;;;;;1.17;0.28;;;20.40;1.00;;;;;;5046409;28;19959;-38
2023/01/28 12:00:04;;;;;;;1.88;0.30;;;20.30;1.00;;;;;;5038670;28;20033;-38
2023/01/28 12:03:04;;;;;;;3.30;0.30;;;20.30;1.00;;;;;;5036133;28;20038;-39
2023/01/28 12:05:52;;;;;;;1.98;0.17;;;20.20;1.00;;;;;;5036213;28;20045;-38
2023/01/28 12:08:48;;;;;;;0.45;0.10;;;20.20;1.00;;;;;;5036376;28;20046;-39
2023/01/28 12:14:23;;;;;;;0.70;0.20;;;20.00;1.00;;;;;;5033556;28;20116;-38
2023/01/28 12:16:55;;;;;;;3.95;0.65;;;20.00;1.00;;;;;;5034092;28;20049;-37
2023/01/28 12:19:45;;;;;;;0.70;0.20;;;19.90;1.00;;;;;;5042584;28;20048;-37
2023/01/28 12:22:49;;;;;;;0.80;0.40;;;19.80;1.00;;;;;;5043374;28;20052;-38
2023/01/28 12:25:35;;;;;;;0.65;0.20;;;19.80;1.00;;;;;;5034276;28;20056;-36
2023/01/28 12:28:15;;;;;;;1.20;0.20;;;19.70;1.00;;;;;;5028996;28;20076;-37
2023/01/28 12:31:17;;;;;;;1.67;0.20;;;19.70;1.00;;;;;;5033640;28;20493;-37
2023/01/28 12:34:09;;;;;;;0.85;0.32;;;19.60;1.00;;;;;;5030404;28;20497;-37
2023/01/28 12:36:36;;;;;;;0.65;0.30;;;19.50;1.00;;;;;;5032752;28;20076;-37
2023/01/28 12:39:19;;;;;;;8.05;0.47;;;19.50;1.00;;;;;;5031789;28;20124;-37
2023/01/28 12:41:52;;;;;;;2.70;0.30;;;19.40;1.00;;;;;;5027969;28;20042;-37
2023/01/28 12:44:33;;;;;;;4.23;0.67;;;19.40;1.00;;;;;;5031787;28;20136;-37
2023/01/28 12:47:07;;;;;;;0.85;0.10;;;19.30;1.00;;;;;;5033373;28;20364;-38
2023/01/28 12:49:49;;;;;;;3.47;0.32;;;19.20;1.00;;;;;;5027469;28;20034;-37
2023/01/28 12:52:31;;;;;;;0.90;0.50;;;19.20;1.00;;;;;;5034942;28;20041;-37
2023/01/28 12:55:17;;;;;;;2.88;0.47;;;19.10;1.00;;;;;;5039632;28;20064;-37
2023/01/28 12:57:44;;;;;;;0.32;0.10;;;19.10;1.00;;;;;;5040002;28;20045;-39
2023/01/28 13:00:35;;;;;;;0.75;0.28;;;19.00;1.00;;;;;;5030590;28;20050;-37
2023/01/28 13:03:32;;;;;;;1.67;0.30;;;19.00;1.00;;;;;;5030927;28;20053;-37
2023/01/28 13:06:28;;;;;;;0.50;0.25;;;18.90;1.00;;;;;;5027278;28;20100;-36
2023/01/28 13:09:00;;;;;;;1.02;0.20;;;18.90;1.00;;;;;;5047858;28;20040;-37
2023/01/28 13:11:34;;;;;;;1.73;0.30;;;18.80;1.00;;;;;;5041545;28;20095;-38
2023/01/28 13:14:03;;;;;;;2.28;1.02;;;18.80;1.00;;;;;;5048358;28;20099;-37
2023/01/28 13:16:30;;;;;;;1.27;0.20;;;18.70;1.00;;;;;;5041444;28;20049;-39
2023/01/28 13:19:17;;;;;;;1.50;0.50;;;18.70;1.00;;;;;;5029113;28;20515;-37
2023/01/28 13:21:46;;;;;;;1.02;0.45;;;18.70;1.00;;;;;;5031978;28;20049;-37
2023/01/28 13:24:15;;;;;;;1.15;0.32;;;18.60;1.00;;;;;;5041589;28;20045;-39
2023/01/28 13:26:51;;;;;;;1.02;0.30;;;18.60;1.00;;;;;;5045461;28;20033;-37
2023/01/28 13:29:24;;;;;;;1.77;0.30;;;18.50;1.00;;;;;;5041114;28;20037;-37
2023/01/28 13:31:56;;;;;;;0.75;0.30;;;18.50;1.00;;;;;;5037882;28;20065;-37
2023/01/28 13:34:28;;;;;;;1.17;0.77;;;18.50;1.00;;;;;;5027294;28;20064;-37
2023/01/28 13:36:57;;;;;;;1.70;0.10;;;18.40;1.00;;;;;;5032704;28;20099;-38
2023/01/28 13:39:25;;;;;;;1.45;0.20;;;18.40;1.00;;;;;;5044329;28;20533;-37
2023/01/28 13:42:13;;;;;;;2.33;0.30;;;18.30;1.00;;;;;;5036697;28;20088;-37
2023/01/28 13:44:40;;;;;;;1.88;0.20;;;18.30;1.00;;;;;;5016785;28;20049;-38
2023/01/28 13:47:07;;;;;;;3.25;0.52;;;18.20;1.00;;;;;;5041923;28;20052;-38
2023/01/28 13:50:07;;;;;;;2.25;0.40;;;18.20;1.00;;;;;;5044337;28;20053;-37
2023/01/28 13:52:57;;;;;;;2.58;0.60;;;18.10;1.00;;;;;;5036761;28;20099;-37
2023/01/28 13:55:28;;;;;;;3.38;1.02;;;18.00;1.00;;;;;;5026307;28;20046;-37
2023/01/28 13:58:53;;;;;;;9.00;0.60;;;18.00;1.00;;;;;;5027932;28;20107;-38
2023/01/28 14:02:02;;;;;;;4.90;0.55;;;17.90;1.00;;;;;;5023980;28;20041;-38
2023/01/28 14:05:05;;;;;;;0.90;0.20;;;17.90;1.00;;;;;;5040203;28;20076;-38